Time;durP1;ratioP1;P1;durP2;ratioP2;P2;SDS_P1;SDS_P2;PMS_P1;PMS_P2;Temp;Humidity;BMP_temperature;BMP_pressure;BME280_temperature;BME280_humidity;BME280_pressure;Samples;Min_cycle;Max_cycle;Signal;HPM_P1;HPM_P2
2021/05/27 04:52:06;;;;;;;4.65;3.28;;;10.30;99.90;;;;;;5216811;23;20047;-67
2021/05/27 04:54:33;;;;;;;7.15;3.40;;;10.30;99.90;;;;;;4944835;29;20550;-67
2021/05/27 04:57:00;;;;;;;4.95;3.22;;;10.30;99.90;;;;;;4949197;28;20106;-67
2021/05/27 04:59:28;;;;;;;6.82;4.75;;;10.40;99.90;;;;;;4951441;29;20074;-67
2021/05/27 05:01:54;;;;;;;11.02;4.10;;;10.40;99.90;;;;;;4942653;28;20325;-67
2021/05/27 05:04:21;;;;;;;7.13;3.30;;;10.40;99.90;;;;;;4930824;29;20337;-67
2021/05/27 05:06:50;;;;;;;;;;;10.50;99.90;;;;;;4931276;29;20521;-67
2021/05/27 05:09:17;;;;;;;7.60;2.92;;;10.60;99.90;;;;;;4926690;29;20249;-67
2021/05/27 05:11:43;;;;;;;6.57;3.40;;;10.60;99.90;;;;;;4931376;29;20047;-68
2021/05/27 05:14:10;;;;;;;7.95;3.03;;;10.70;99.90;;;;;;4930258;29;20507;-67
2021/05/27 05:16:37;;;;;;;8.48;3.55;;;10.70;99.90;;;;;;4932048;29;20134;-68
2021/05/27 05:19:03;;;;;;;6.75;3.40;;;10.70;99.90;;;;;;4930153;29;20083;-67
2021/05/27 05:21:30;;;;;;;7.63;3.10;;;10.80;99.90;;;;;;4930971;29;20639;-67
2021/05/27 05:23:57;;;;;;;6.32;3.28;;;10.80;99.90;;;;;;4931210;29;20066;-67
2021/05/27 05:26:24;;;;;;;;;;;10.90;99.90;;;;;;4915268;29;20084;-68
2021/05/27 05:28:50;;;;;;;6.30;3.30;;;10.80;99.90;;;;;;4911669;29;20022;-68
2021/05/27 05:31:17;;;;;;;5.72;3.10;;;10.80;99.90;;;;;;4930952;29;20299;-68
2021/05/27 05:33:43;;;;;;;7.13;3.55;;;10.90;99.90;;;;;;4930205;29;20076;-67
2021/05/27 05:36:10;;;;;;;;;;;10.80;99.90;;;;;;4946955;29;20142;-67
2021/05/27 05:38:39;;;;;;;5.35;3.45;;;10.80;99.90;;;;;;4931540;29;19980;-68
2021/05/27 05:41:06;;;;;;;9.60;3.38;;;11.00;99.90;;;;;;4930215;29;20044;-67
2021/05/27 05:43:33;;;;;;;;;;;11.10;99.90;;;;;;4930896;29;20048;-68
2021/05/27 05:46:01;;;;;;;5.67;3.50;;;11.30;99.90;;;;;;4930137;29;19922;-68
2021/05/27 05:48:27;;;;;;;5.57;3.15;;;11.40;99.90;;;;;;4931760;29;20043;-68
2021/05/27 05:50:57;;;;;;;4.35;2.55;;;11.60;99.90;;;;;;4931414;29;20484;-66
2021/05/27 05:53:24;;;;;;;8.82;3.05;;;11.90;99.90;;;;;;4930939;29;20035;-66
2021/05/27 05:55:53;;;;;;;3.92;2.90;;;11.80;99.90;;;;;;4932498;29;20051;-66
2021/05/27 05:58:21;;;;;;;9.30;3.30;;;11.70;99.90;;;;;;4929985;29;20070;-66
2021/05/27 06:00:51;;;;;;;6.30;3.70;;;11.70;99.90;;;;;;4928687;29;20048;-67
2021/05/27 06:03:18;;;;;;;6.85;3.17;;;11.60;99.90;;;;;;4930955;29;20142;-66
2021/05/27 06:06:03;;;;;;;4.75;3.22;;;11.60;99.90;;;;;;4931117;29;20051;-66
2021/05/27 06:08:41;;;;;;;8.85;3.47;;;11.70;99.90;;;;;;4931430;29;20058;-66
2021/05/27 06:11:08;;;;;;;;;;;11.90;99.90;;;;;;4931462;29;20047;-66
2021/05/27 06:13:34;;;;;;;7.57;3.00;;;12.00;99.90;;;;;;4932185;29;19950;-66
2021/05/27 06:16:02;;;;;;;;;;;12.00;99.90;;;;;;4929940;29;20122;-66
2021/05/27 06:18:28;;;;;;;8.00;3.75;;;12.10;99.90;;;;;;4930776;29;19933;-66
2021/05/27 06:21:16;;;;;;;5.25;3.38;;;12.20;99.90;;;;;;4924090;29;20047;-67
2021/05/27 06:23:44;;;;;;;4.32;3.00;;;12.20;99.90;;;;;;4930297;29;20527;-66
2021/05/27 06:26:11;;;;;;;8.82;3.58;;;12.40;99.90;;;;;;4930884;29;20047;-66
2021/05/27 06:28:38;;;;;;;8.52;3.13;;;12.60;99.90;;;;;;4931641;29;20428;-68
2021/05/27 06:31:05;;;;;;;6.43;3.53;;;12.70;99.90;;;;;;4931539;29;20399;-66
2021/05/27 06:33:32;;;;;;;10.02;2.80;;;13.00;99.90;;;;;;4932040;29;20059;-66
2021/05/27 06:35:58;;;;;;;;;;;13.20;99.90;;;;;;4931758;29;20115;-66
2021/05/27 06:38:25;;;;;;;4.15;3.47;;;12.80;99.90;;;;;;4930850;29;20331;-65
2021/05/27 06:40:51;;;;;;;5.50;3.92;;;12.70;99.90;;;;;;4931348;29;20103;-66
2021/05/27 06:43:18;;;;;;;5.40;3.40;;;12.50;99.90;;;;;;4930279;29;20040;-68
2021/05/27 06:45:52;;;;;;;7.18;3.53;;;12.30;99.90;;;;;;4929472;29;20051;-66
2021/05/27 06:48:20;;;;;;;;;;;12.30;99.90;;;;;;4931180;29;20046;-66
2021/05/27 06:50:46;;;;;;;6.63;3.30;;;12.30;99.90;;;;;;4923307;29;20309;-67
2021/05/27 06:53:15;;;;;;;9.63;3.97;;;12.30;99.90;;;;;;4933012;29;20036;-65
2021/05/27 06:55:44;;;;;;;7.30;3.85;;;12.60;99.90;;;;;;4931510;29;20055;-65
2021/05/27 06:58:10;;;;;;;9.93;3.60;;;12.90;99.90;;;;;;4934227;29;20047;-68
2021/05/27 07:00:39;;;;;;;8.35;5.20;;;12.70;99.90;;;;;;4933422;29;20048;-65
2021/05/27 07:03:07;;;;;;;7.13;4.72;;;12.80;99.90;;;;;;4933778;29;20094;-67
2021/05/27 07:05:36;;;;;;;7.80;4.88;;;12.80;99.90;;;;;;4932525;29;20142;-66
2021/05/27 07:08:06;;;;;;;6.68;4.07;;;13.00;99.90;;;;;;4934659;29;20122;-66
2021/05/27 07:10:47;;;;;;;4.88;3.30;;;13.00;99.90;;;;;;4934273;29;20047;-66
2021/05/27 07:13:13;;;;;;;5.55;3.45;;;12.90;99.90;;;;;;4932184;29;20071;-68
2021/05/27 07:15:40;;;;;;;6.03;4.32;;;12.80;99.90;;;;;;4934720;29;20126;-67
2021/05/27 07:18:07;;;;;;;4.60;4.07;;;12.80;99.90;;;;;;4931908;29;20079;-67
2021/05/27 07:20:37;;;;;;;6.38;4.35;;;12.70;99.90;;;;;;4933551;29;20050;-67
2021/05/27 07:23:04;;;;;;;9.13;4.65;;;12.80;99.90;;;;;;4932988;29;20043;-68
2021/05/27 07:25:31;;;;;;;7.70;4.15;;;13.00;99.90;;;;;;4934226;29;20528;-67
2021/05/27 07:27:58;;;;;;;11.45;4.10;;;12.70;99.90;;;;;;4933982;29;20507;-67
2021/05/27 07:30:26;;;;;;;8.57;4.05;;;12.80;99.90;;;;;;4929409;29;20074;-66
2021/05/27 07:32:53;;;;;;;5.38;3.95;;;12.80;99.90;;;;;;4932928;29;20416;-68
2021/05/27 07:35:20;;;;;;;;;;;12.70;99.90;;;;;;4935304;29;20110;-68
2021/05/27 07:37:47;;;;;;;7.97;4.07;;;12.90;99.90;;;;;;4934768;29;19966;-68
2021/05/27 07:40:14;;;;;;;10.75;4.43;;;13.00;99.90;;;;;;4931583;29;20072;-68
2021/05/27 07:42:41;;;;;;;4.97;3.72;;;13.00;99.90;;;;;;4930020;29;20059;-68
2021/05/27 07:45:08;;;;;;;4.25;3.80;;;13.00;99.90;;;;;;4956410;28;20051;-68
2021/05/27 07:47:34;;;;;;;6.00;4.28;;;13.00;99.90;;;;;;4928099;29;20055;-68
2021/05/27 07:50:02;;;;;;;;;;;13.00;99.90;;;;;;4934763;29;20435;-68
2021/05/27 07:52:29;;;;;;;5.82;4.90;;;12.90;99.90;;;;;;4935442;29;19923;-68
2021/05/27 07:54:57;;;;;;;7.10;4.10;;;13.00;99.90;;;;;;4933178;29;20040;-68
2021/05/27 07:57:24;;;;;;;6.05;4.00;;;12.90;99.90;;;;;;4933629;29;20060;-68
2021/05/27 07:59:50;;;;;;;7.03;4.55;;;13.10;99.90;;;;;;4933626;29;20142;-68
2021/05/27 08:02:17;;;;;;;7.75;4.53;;;12.90;99.90;;;;;;4935015;29;20054;-69
2021/05/27 08:04:44;;;;;;;;;;;12.80;99.90;;;;;;4935201;29;20047;-68
2021/05/27 08:07:11;;;;;;;4.07;3.30;;;12.70;99.90;;;;;;4915559;29;20183;-68
2021/05/27 08:09:38;;;;;;;;;;;12.70;99.90;;;;;;4915667;29;20048;-68
2021/05/27 08:12:07;;;;;;;9.82;3.90;;;12.70;99.90;;;;;;4915303;29;19950;-68
2021/05/27 08:14:33;;;;;;;5.53;3.17;;;12.80;99.90;;;;;;4924802;29;20504;-68
2021/05/27 08:17:00;;;;;;;;;;;12.80;99.90;;;;;;4934400;29;20052;-67
2021/05/27 08:19:26;;;;;;;5.97;3.70;;;12.80;99.90;;;;;;4934577;29;19929;-68
2021/05/27 08:21:54;;;;;;;7.45;4.82;;;12.80;99.90;;;;;;4934117;29;20055;-68
2021/05/27 08:24:20;;;;;;;3.72;3.42;;;13.00;99.90;;;;;;4934044;29;20047;-68
2021/05/27 08:26:47;;;;;;;4.85;3.78;;;12.90;99.90;;;;;;4932360;29;20067;-68
2021/05/27 08:29:14;;;;;;;;;;;13.00;99.90;;;;;;4934274;29;20127;-67
2021/05/27 08:31:41;;;;;;;7.00;3.40;;;13.10;99.90;;;;;;4932237;29;19923;-66
2021/05/27 08:34:08;;;;;;;5.07;3.28;;;13.10;99.90;;;;;;4932582;29;20419;-67
2021/05/27 08:36:35;;;;;;;4.82;3.60;;;13.00;99.90;;;;;;4933985;29;20047;-67
2021/05/27 08:39:03;;;;;;;5.32;3.55;;;13.10;99.90;;;;;;4931511;29;20048;-67
2021/05/27 08:41:30;;;;;;;6.00;4.25;;;13.00;99.90;;;;;;4933463;29;20067;-66
2021/05/27 08:43:56;;;;;;;9.77;3.95;;;13.20;99.90;;;;;;4933756;29;20054;-67
2021/05/27 08:46:24;;;;;;;;;;;13.10;99.90;;;;;;4933530;29;20110;-67
2021/05/27 08:48:51;;;;;;;5.32;3.35;;;13.10;99.90;;;;;;4933222;29;20299;-67
2021/05/27 08:51:18;;;;;;;4.93;3.30;;;13.20;99.90;;;;;;4932443;29;20192;-67
2021/05/27 08:53:45;;;;;;;5.03;3.25;;;13.20;99.90;;;;;;4929082;29;20131;-67
2021/05/27 08:56:12;;;;;;;;;;;13.10;99.90;;;;;;4933244;29;20048;-67
2021/05/27 08:58:38;;;;;;;5.05;3.28;;;13.10;99.90;;;;;;4932808;29;19923;-68
2021/05/27 09:01:06;;;;;;;;;;;13.10;99.90;;;;;;4933609;29;20118;-66
2021/05/27 09:03:41;;;;;;;4.30;3.20;;;13.20;99.90;;;;;;4933370;29;19931;-67
2021/05/27 09:06:09;;;;;;;4.78;2.83;;;13.20;99.90;;;;;;4933296;29;20283;-66
2021/05/27 09:08:37;;;;;;;4.60;3.60;;;13.20;99.90;;;;;;4932732;29;20191;-66
2021/05/27 09:11:04;;;;;;;8.13;4.90;;;13.40;99.90;;;;;;4931957;29;20455;-67
2021/05/27 09:13:31;;;;;;;9.73;3.58;;;13.60;99.90;;;;;;4931768;29;20043;-66
2021/05/27 09:16:07;;;;;;;5.28;3.20;;;13.50;99.90;;;;;;4932916;29;20407;-66
2021/05/27 09:18:35;;;;;;;7.88;3.60;;;13.50;99.90;;;;;;4932880;29;20467;-66
2021/05/27 09:21:04;;;;;;;6.53;3.25;;;13.70;99.90;;;;;;4932450;29;20198;-67
2021/05/27 09:23:31;;;;;;;4.45;3.42;;;13.60;99.90;;;;;;4930136;29;20040;-68
2021/05/27 09:26:07;;;;;;;6.45;3.70;;;13.90;99.90;;;;;;4929858;29;20051;-68
2021/05/27 09:28:34;;;;;;;4.70;3.78;;;13.90;99.90;;;;;;4929689;29;20147;-68
2021/05/27 09:31:08;;;;;;;9.23;6.32;;;14.00;99.90;;;;;;4924781;29;20059;-68
2021/05/27 09:33:36;;;;;;;8.38;5.97;;;14.10;99.90;;;;;;4924387;29;20416;-68
2021/05/27 09:36:06;;;;;;;15.43;8.98;;;14.20;99.90;;;;;;4921122;29;20315;-67
2021/05/27 09:38:35;;;;;;;9.70;3.75;;;14.20;99.90;;;;;;4924740;29;20075;-68
2021/05/27 09:41:15;;;;;;;4.03;3.40;;;14.40;99.90;;;;;;4931763;29;20102;-68
2021/05/27 09:43:44;;;;;;;7.88;3.55;;;14.60;99.90;;;;;;4927077;29;20051;-68
2021/05/27 09:46:11;;;;;;;4.55;3.92;;;14.50;99.90;;;;;;4924295;29;20050;-68
2021/05/27 09:48:37;;;;;;;;;;;14.60;99.90;;;;;;4929223;29;20075;-67
2021/05/27 09:51:05;;;;;;;6.70;3.42;;;14.40;99.90;;;;;;4931646;29;20078;-66
2021/05/27 09:53:33;;;;;;;3.85;3.03;;;14.40;99.90;;;;;;4930212;29;20512;-66
2021/05/27 09:56:01;;;;;;;4.70;3.40;;;14.50;99.90;;;;;;4929031;29;20058;-67
2021/05/27 09:58:28;;;;;;;4.05;3.30;;;14.40;99.90;;;;;;4926792;29;20040;-66
2021/05/27 10:00:55;;;;;;;6.85;4.03;;;14.50;99.90;;;;;;4933440;29;20043;-66
2021/05/27 10:03:27;;;;;;;7.47;3.58;;;14.50;99.90;;;;;;4933644;29;20111;-69
2021/05/27 10:05:55;;;;;;;7.25;3.75;;;14.60;99.90;;;;;;4932545;29;20125;-69
2021/05/27 10:08:23;;;;;;;4.82;3.88;;;14.50;99.90;;;;;;4934148;29;20469;-67
2021/05/27 10:10:51;;;;;;;6.60;3.75;;;14.30;99.90;;;;;;4931034;29;20027;-68
2021/05/27 10:13:23;;;;;;;4.07;3.63;;;14.10;99.90;;;;;;4933722;29;20039;-68
2021/05/27 10:15:50;;;;;;;4.30;3.58;;;14.20;99.90;;;;;;4932673;29;20673;-67
2021/05/27 10:18:18;;;;;;;5.78;3.17;;;14.30;99.90;;;;;;4932571;29;20047;-68
2021/05/27 10:20:45;;;;;;;5.90;3.33;;;14.00;99.90;;;;;;4932501;29;20504;-68
2021/05/27 10:23:12;;;;;;;4.10;2.97;;;13.80;99.90;;;;;;4922997;29;20072;-67
2021/05/27 10:25:40;;;;;;;3.30;2.85;;;13.60;99.90;;;;;;4931529;29;20066;-68
2021/05/27 10:28:10;;;;;;;5.30;3.10;;;13.70;99.90;;;;;;4935319;29;20420;-68
2021/05/27 10:30:39;;;;;;;3.17;2.72;;;14.10;99.90;;;;;;4936309;29;20122;-68
2021/05/27 10:33:13;;;;;;;5.13;2.90;;;14.30;99.90;;;;;;4937405;29;20126;-68
2021/05/27 10:35:53;;;;;;;3.92;2.28;;;14.40;99.90;;;;;;4937697;29;20527;-68
2021/05/27 10:38:57;;;;;;;4.93;2.95;;;14.50;99.90;;;;;;4935403;29;20392;-69
2021/05/27 10:41:53;;;;;;;5.43;3.10;;;14.90;99.90;;;;;;4932099;29;20579;-68
2021/05/27 10:44:20;;;;;;;6.35;3.38;;;14.60;99.90;;;;;;4928990;29;20044;-68
2021/05/27 10:47:18;;;;;;;6.10;3.20;;;14.40;99.90;;;;;;4932572;29;20500;-68
2021/05/27 10:49:58;;;;;;;8.32;3.38;;;14.50;99.90;;;;;;4931227;29;20448;-68
2021/05/27 10:52:38;;;;;;;5.68;4.45;;;14.70;99.90;;;;;;4934532;29;20051;-67
2021/05/27 10:55:21;;;;;;;17.45;5.50;;;14.70;99.90;;;;;;4934326;29;20131;-68
2021/05/27 10:57:49;;;;;;;6.70;5.00;;;14.60;99.90;;;;;;4923339;29;20159;-67
2021/05/27 11:00:49;;;;;;;7.32;4.72;;;14.70;99.90;;;;;;4935127;29;20074;-67
2021/05/27 11:03:41;;;;;;;5.93;3.60;;;14.70;99.90;;;;;;4875581;29;20623;-67
2021/05/27 11:06:24;;;;;;;4.85;3.08;;;14.40;99.90;;;;;;4874200;29;20204;-68
2021/05/27 11:09:23;;;;;;;10.90;6.07;;;14.20;99.90;;;;;;4918299;29;20055;-68
2021/05/27 11:11:52;;;;;;;5.15;3.22;;;14.10;99.90;;;;;;4923890;29;20318;-68
2021/05/27 11:14:22;;;;;;;4.40;2.67;;;14.00;99.90;;;;;;4932905;29;20511;-66
2021/05/27 11:17:25;;;;;;;3.17;2.70;;;13.80;99.90;;;;;;4935228;29;20276;-66
2021/05/27 11:19:55;;;;;;;3.25;2.97;;;13.80;99.90;;;;;;4934734;29;20035;-67
2021/05/27 11:22:50;;;;;;;3.65;2.92;;;13.90;99.90;;;;;;4933896;29;20134;-66
2021/05/27 11:25:26;;;;;;;5.38;3.03;;;13.70;99.90;;;;;;4933791;29;20095;-67
2021/05/27 11:27:56;;;;;;;3.47;2.47;;;13.70;99.90;;;;;;4934624;29;20070;-67
2021/05/27 11:30:25;;;;;;;3.90;3.25;;;13.70;99.90;;;;;;4933435;29;20051;-68
2021/05/27 11:32:55;;;;;;;6.00;4.30;;;13.70;99.90;;;;;;4934982;29;20057;-69
2021/05/27 11:35:24;;;;;;;4.05;3.45;;;13.60;99.90;;;;;;4934508;29;20052;-68
2021/05/27 11:37:52;;;;;;;4.47;4.07;;;13.60;99.90;;;;;;4933522;29;20052;-68
2021/05/27 11:40:21;;;;;;;7.45;4.65;;;13.70;99.90;;;;;;4945124;29;20051;-67
2021/05/27 11:42:52;;;;;;;5.85;3.88;;;13.60;99.90;;;;;;4948572;29;20044;-68
2021/05/27 11:45:21;;;;;;;5.93;4.03;;;13.40;99.90;;;;;;4947995;29;20079;-68
2021/05/27 11:48:13;;;;;;;4.82;4.32;;;13.50;99.90;;;;;;4953025;29;20073;-68
2021/05/27 11:50:40;;;;;;;6.38;3.72;;;13.40;99.90;;;;;;4950858;29;20036;-67
2021/05/27 11:53:06;;;;;;;5.50;3.50;;;13.40;99.90;;;;;;4949259;29;20075;-68
2021/05/27 11:55:34;;;;;;;6.85;4.05;;;13.40;99.90;;;;;;4939871;29;20520;-67
2021/05/27 11:58:02;;;;;;;7.68;3.58;;;13.30;99.90;;;;;;4934451;29;20047;-68
2021/05/27 12:00:28;;;;;;;8.00;3.45;;;13.10;99.90;;;;;;4932918;29;20496;-68
2021/05/27 12:02:58;;;;;;;8.43;3.50;;;13.30;99.90;;;;;;4933988;29;20075;-68
2021/05/27 12:05:28;;;;;;;4.80;4.30;;;13.30;99.90;;;;;;4934761;29;20071;-68
2021/05/27 12:08:01;;;;;;;4.15;3.40;;;13.30;99.90;;;;;;4931792;29;20389;-67
2021/05/27 12:10:29;;;;;;;5.70;4.03;;;13.40;99.90;;;;;;4933682;29;20075;-68
2021/05/27 12:12:56;;;;;;;5.38;3.72;;;13.40;99.90;;;;;;4932226;29;20040;-68
2021/05/27 12:15:25;;;;;;;3.38;3.08;;;13.30;99.90;;;;;;4934374;29;20043;-67
2021/05/27 12:17:52;;;;;;;4.47;3.63;;;13.50;99.90;;;;;;4921459;29;20044;-67
2021/05/27 12:20:27;;;;;;;4.15;2.88;;;13.70;99.90;;;;;;4934047;29;20047;-68
2021/05/27 12:22:57;;;;;;;3.03;2.40;;;13.90;99.90;;;;;;4931419;29;20107;-68
2021/05/27 12:25:25;;;;;;;3.85;2.80;;;14.00;99.90;;;;;;4934132;29;20039;-68
2021/05/27 12:27:55;;;;;;;3.40;2.60;;;14.10;99.90;;;;;;4931951;29;20043;-68
2021/05/27 12:30:24;;;;;;;4.60;2.63;;;13.80;99.90;;;;;;4933984;29;20045;-69
2021/05/27 12:32:54;;;;;;;5.13;2.90;;;13.80;99.90;;;;;;4932002;29;20059;-69
2021/05/27 12:35:24;;;;;;;4.90;2.85;;;14.00;99.90;;;;;;4933706;29;20119;-68
2021/05/27 12:37:54;;;;;;;3.17;2.97;;;13.70;99.90;;;;;;4931967;29;20126;-68
2021/05/27 12:40:25;;;;;;;7.35;3.83;;;13.60;99.90;;;;;;4933595;29;20399;-69
2021/05/27 12:42:55;;;;;;;7.97;4.60;;;13.70;99.90;;;;;;4931008;29;20091;-68
2021/05/27 12:45:35;;;;;;;6.60;4.90;;;13.80;99.90;;;;;;4931772;29;20470;-68
2021/05/27 12:48:15;;;;;;;3.40;3.10;;;13.50;99.90;;;;;;4931485;29;20126;-68
2021/05/27 12:50:45;;;;;;;4.25;3.13;;;13.20;99.90;;;;;;4932324;29;20131;-68
2021/05/27 12:53:25;;;;;;;3.58;2.55;;;13.10;99.90;;;;;;4934346;29;20048;-68
2021/05/27 12:55:54;;;;;;;2.50;2.30;;;13.00;99.90;;;;;;4933594;29;20055;-69
2021/05/27 12:58:29;;;;;;;5.63;2.70;;;12.80;99.90;;;;;;4931859;29;20195;-65
2021/05/27 13:00:57;;;;;;;5.13;2.80;;;12.70;99.90;;;;;;4938269;29;20044;-68
2021/05/27 13:03:23;;;;;;;4.97;2.67;;;12.70;99.90;;;;;;4929677;29;20135;-67
2021/05/27 13:06:04;;;;;;;7.90;3.42;;;12.80;99.90;;;;;;4929259;29;20126;-68
2021/05/27 13:08:31;;;;;;;11.48;3.55;;;12.90;99.90;;;;;;4933875;29;20082;-68
2021/05/27 13:10:59;;;;;;;3.80;3.20;;;13.00;99.90;;;;;;4931240;29;20044;-68
2021/05/27 13:13:32;;;;;;;6.28;3.75;;;13.00;99.90;;;;;;4929816;29;20139;-68
2021/05/27 13:15:59;;;;;;;8.77;3.50;;;13.10;99.90;;;;;;4933231;29;20074;-68
2021/05/27 13:18:25;;;;;;;7.97;3.92;;;13.00;99.90;;;;;;4931238;29;20063;-68
2021/05/27 13:20:54;;;;;;;4.07;3.78;;;13.10;99.90;;;;;;4930478;29;20134;-70
2021/05/27 13:23:25;;;;;;;4.15;3.17;;;13.50;99.90;;;;;;4933739;29;20131;-68
2021/05/27 13:25:52;;;;;;;4.07;3.45;;;13.40;99.90;;;;;;4932906;29;20130;-68
2021/05/27 13:28:25;;;;;;;3.65;3.35;;;13.90;99.90;;;;;;4931151;29;20075;-69
2021/05/27 13:30:51;;;;;;;5.05;3.72;;;14.40;99.90;;;;;;4932984;29;20055;-68
2021/05/27 13:33:20;;;;;;;6.57;3.03;;;15.00;99.90;;;;;;4932130;29;20054;-68
2021/05/27 13:35:54;;;;;;;7.03;3.70;;;15.30;99.90;;;;;;4930955;29;20055;-68
2021/05/27 13:38:22;;;;;;;5.53;3.22;;;15.40;99.90;;;;;;4931549;29;20107;-68
2021/05/27 13:40:49;;;;;;;4.88;3.38;;;15.60;99.90;;;;;;4931497;29;20070;-69
2021/05/27 13:43:16;;;;;;;4.05;3.65;;;15.60;99.90;;;;;;4930405;29;20064;-68
2021/05/27 13:45:43;;;;;;;;;;;15.30;99.90;;;;;;4930394;29;20538;-68
2021/05/27 13:48:10;;;;;;;3.63;3.13;;;15.30;99.90;;;;;;4931654;29;19974;-69
2021/05/27 13:50:37;;;;;;;5.47;2.83;;;15.40;99.90;;;;;;4931903;29;20386;-68
2021/05/27 13:53:05;;;;;;;3.95;3.00;;;15.50;99.90;;;;;;4930313;29;20412;-68
2021/05/27 13:55:34;;;;;;;5.55;3.85;;;14.90;99.90;;;;;;4932396;29;20058;-68
2021/05/27 13:58:01;;;;;;;6.30;3.13;;;14.80;99.90;;;;;;4929949;29;20075;-68
2021/05/27 14:00:27;;;;;;;;;;;14.60;99.90;;;;;;4931922;29;20149;-68
2021/05/27 14:02:54;;;;;;;3.50;2.70;;;14.50;99.90;;;;;;4935846;29;19950;-68
2021/05/27 14:05:21;;;;;;;6.82;3.22;;;14.30;99.90;;;;;;4936029;29;20086;-68
2021/05/27 14:07:52;;;;;;;3.53;2.60;;;14.40;99.90;;;;;;4935914;29;20098;-68
2021/05/27 14:10:19;;;;;;;6.07;2.90;;;14.40;99.90;;;;;;4935906;29;20086;-68
2021/05/27 14:12:45;;;;;;;3.15;2.55;;;14.30;99.90;;;;;;4934924;29;20082;-68
2021/05/27 14:15:13;;;;;;;4.25;2.88;;;13.70;99.90;;;;;;4937514;29;20189;-68
2021/05/27 14:17:40;;;;;;;8.73;5.13;;;13.60;99.90;;;;;;4935275;29;20048;-68
2021/05/27 14:20:08;;;;;;;;;;;13.50;99.90;;;;;;4936892;29;20079;-67
2021/05/27 14:22:35;;;;;;;5.75;2.92;;;13.30;99.90;;;;;;4936606;29;19930;-68
2021/05/27 14:25:01;;;;;;;4.45;3.63;;;13.20;99.90;;;;;;4935538;29;20072;-68
2021/05/27 14:27:28;;;;;;;4.13;3.42;;;13.20;99.90;;;;;;4936444;29;20051;-68
2021/05/27 14:29:54;;;;;;;4.70;3.63;;;13.30;99.90;;;;;;4936520;29;20071;-68
2021/05/27 14:32:22;;;;;;;3.83;3.17;;;13.50;99.90;;;;;;4935270;29;20500;-68
2021/05/27 14:34:48;;;;;;;3.78;3.35;;;13.60;99.90;;;;;;4935710;29;20099;-68
2021/05/27 14:37:15;;;;;;;5.13;3.10;;;13.60;99.90;;;;;;4933665;29;20048;-68
2021/05/27 14:39:43;;;;;;;3.90;3.15;;;13.70;99.90;;;;;;4932738;29;20440;-68
2021/05/27 14:42:09;;;;;;;4.32;3.92;;;13.80;99.90;;;;;;4931952;29;20039;-68
2021/05/27 14:44:36;;;;;;;4.38;3.35;;;13.90;99.90;;;;;;4916963;29;20124;-67
2021/05/27 14:47:03;;;;;;;7.72;3.42;;;13.90;99.90;;;;;;4934225;29;20055;-68
2021/05/27 14:49:30;;;;;;;5.70;3.42;;;14.00;99.90;;;;;;4936285;29;20035;-67
2021/05/27 14:51:56;;;;;;;4.38;3.30;;;14.20;99.90;;;;;;4935487;29;20568;-68
2021/05/27 14:54:24;;;;;;;8.48;4.13;;;14.20;99.90;;;;;;4935944;29;20067;-69
2021/05/27 14:56:51;;;;;;;4.95;3.60;;;14.40;99.90;;;;;;4930108;29;20047;-68
2021/05/27 14:59:18;;;;;;;5.03;3.17;;;14.30;99.90;;;;;;4935312;29;20052;-68
2021/05/27 15:01:44;;;;;;;3.53;3.22;;;14.20;99.90;;;;;;4934193;29;20047;-68
2021/05/27 15:04:11;;;;;;;4.68;3.42;;;14.00;99.90;;;;;;4934300;29;20122;-68
2021/05/27 15:06:38;;;;;;;4.60;3.40;;;14.20;99.90;;;;;;4934025;29;20051;-68
2021/05/27 15:09:05;;;;;;;4.35;3.45;;;14.00;99.90;;;;;;4937389;29;20047;-68
2021/05/27 15:11:33;;;;;;;7.10;3.38;;;14.10;99.90;;;;;;4933404;29;20111;-68
2021/05/27 15:14:00;;;;;;;3.72;3.42;;;14.00;99.90;;;;;;4934663;29;20082;-68
2021/05/27 15:16:26;;;;;;;5.97;3.80;;;14.00;99.90;;;;;;4933444;29;20151;-68
2021/05/27 15:18:53;;;;;;;;;;;14.10;99.90;;;;;;4933428;29;20135;-69
2021/05/27 15:21:19;;;;;;;3.90;3.60;;;14.10;99.90;;;;;;4935060;29;19922;-68
2021/05/27 15:23:46;;;;;;;5.75;3.08;;;14.20;99.90;;;;;;4933604;29;20500;-69
2021/05/27 15:26:12;;;;;;;6.07;3.67;;;14.30;99.90;;;;;;4931446;29;20036;-69
2021/05/27 15:28:40;;;;;;;4.25;3.85;;;14.30;99.90;;;;;;4934842;29;20047;-68
2021/05/27 15:31:07;;;;;;;4.60;3.53;;;14.20;99.90;;;;;;4933271;29;20122;-68
2021/05/27 15:33:34;;;;;;;6.10;3.55;;;14.30;99.90;;;;;;4933424;29;20060;-68
2021/05/27 15:38:48;;;;;;;4.68;3.80;;;14.50;99.90;;;;;;4934999;29;20107;-68
2021/05/27 15:41:14;;;;;;;7.03;4.18;;;14.50;99.90;;;;;;4933382;29;20046;-68
2021/05/27 15:43:42;;;;;;;4.05;3.63;;;14.50;99.90;;;;;;4933031;29;20535;-68
2021/05/27 15:46:08;;;;;;;9.00;4.20;;;14.60;99.90;;;;;;4934018;29;20202;-68
2021/05/27 15:48:35;;;;;;;5.43;3.90;;;14.70;99.90;;;;;;4933075;29;20047;-68
2021/05/27 15:51:01;;;;;;;5.10;3.40;;;14.70;99.90;;;;;;4932559;29;20529;-68
2021/05/27 15:53:28;;;;;;;8.90;4.80;;;14.70;99.90;;;;;;4935063;29;20055;-67
2021/05/27 15:55:54;;;;;;;5.88;4.03;;;14.90;99.90;;;;;;4935100;29;20052;-68
2021/05/27 15:58:21;;;;;;;6.03;4.40;;;14.80;99.90;;;;;;4933650;29;20052;-67
2021/05/27 16:00:48;;;;;;;5.25;4.20;;;14.80;99.90;;;;;;4929232;29;20412;-68
2021/05/27 16:03:15;;;;;;;5.97;4.10;;;14.80;99.90;;;;;;4932555;29;20419;-66
2021/05/27 16:05:42;;;;;;;5.43;4.50;;;14.70;99.90;;;;;;4932330;29;20510;-68
2021/05/27 16:08:08;;;;;;;;;;;14.40;99.90;;;;;;4933896;29;20075;-67
2021/05/27 16:10:35;;;;;;;7.85;4.57;;;14.40;99.90;;;;;;4933201;29;19926;-67
2021/05/27 16:13:05;;;;;;;8.75;5.10;;;14.50;99.90;;;;;;4931731;29;20040;-67
2021/05/27 16:15:31;;;;;;;13.02;4.47;;;14.70;99.90;;;;;;4933168;29;20043;-67
2021/05/27 16:17:59;;;;;;;8.98;5.50;;;14.50;99.90;;;;;;4931973;29;20099;-67
2021/05/27 16:20:25;;;;;;;10.07;5.53;;;14.40;99.90;;;;;;4934133;29;20044;-67
2021/05/27 16:22:52;;;;;;;11.45;6.57;;;14.40;99.90;;;;;;4933048;29;20599;-67
2021/05/27 16:25:18;;;;;;;10.75;5.57;;;14.40;99.90;;;;;;4933302;29;20420;-67
2021/05/27 16:27:45;;;;;;;6.63;5.13;;;14.30;99.90;;;;;;4933368;29;20044;-67
2021/05/27 16:30:13;;;;;;;5.68;4.97;;;14.40;99.90;;;;;;4933016;29;20704;-66
2021/05/27 16:32:40;;;;;;;8.20;4.65;;;14.30;99.90;;;;;;4933709;29;20059;-67
2021/05/27 16:35:12;;;;;;;9.00;5.65;;;14.30;99.90;;;;;;4932339;29;20126;-67
2021/05/27 16:40:26;;;;;;;8.73;5.82;;;14.30;99.90;;;;;;4932641;29;20039;-67
2021/05/27 16:42:53;;;;;;;8.23;5.35;;;14.30;99.90;;;;;;4931396;29;20040;-68
2021/05/27 16:45:19;;;;;;;10.88;6.20;;;14.20;99.90;;;;;;4932291;29;20054;-68
2021/05/27 16:47:48;;;;;;;6.82;5.85;;;14.30;99.90;;;;;;4932749;29;20039;-67
2021/05/27 16:50:16;;;;;;;7.30;5.32;;;14.40;99.90;;;;;;4931627;29;20075;-68
2021/05/27 16:52:44;;;;;;;9.68;5.88;;;14.20;99.90;;;;;;4931236;29;20048;-68
2021/05/27 16:55:12;;;;;;;8.40;5.55;;;14.20;99.90;;;;;;4934278;29;20517;-68
2021/05/27 16:57:41;;;;;;;8.88;4.80;;;14.10;99.90;;;;;;4933961;29;20055;-67
2021/05/27 17:00:09;;;;;;;10.30;6.88;;;14.10;99.90;;;;;;4933135;29;20122;-68
2021/05/27 17:02:36;;;;;;;9.10;6.07;;;14.30;99.90;;;;;;4932068;29;20047;-68
2021/05/27 17:05:03;;;;;;;9.45;6.28;;;14.40;99.90;;;;;;4952612;23;20456;-68
2021/05/27 17:07:30;;;;;;;8.70;5.10;;;14.50;99.90;;;;;;4931864;29;20036;-69
2021/05/27 17:09:57;;;;;;;10.82;7.07;;;14.40;99.90;;;;;;4930762;29;20350;-68
2021/05/27 17:12:23;;;;;;;;;;;14.40;99.90;;;;;;4930593;29;20048;-68
2021/05/27 17:14:50;;;;;;;12.25;7.95;;;14.30;99.90;;;;;;4928187;29;19990;-67
2021/05/27 17:17:16;;;;;;;;;;;14.10;99.90;;;;;;4933418;29;20044;-68
2021/05/27 17:19:43;;;;;;;9.52;6.22;;;14.00;99.90;;;;;;4933564;29;19927;-67
2021/05/27 17:22:10;;;;;;;8.25;6.00;;;14.00;99.90;;;;;;4931707;29;20424;-67
2021/05/27 17:24:39;;;;;;;8.18;6.30;;;13.90;99.90;;;;;;4932188;29;20050;-66
2021/05/27 17:27:06;;;;;;;10.85;7.15;;;13.90;99.90;;;;;;4932731;29;20059;-66
2021/05/27 17:29:32;;;;;;;11.48;7.07;;;14.00;99.90;;;;;;4930941;29;20130;-66
2021/05/27 17:31:59;;;;;;;7.30;5.90;;;14.00;99.90;;;;;;4929764;29;20393;-66
2021/05/27 17:34:26;;;;;;;8.73;6.28;;;14.00;99.90;;;;;;4932745;29;20551;-66
2021/05/27 17:36:53;;;;;;;9.48;6.20;;;13.90;99.90;;;;;;4930896;29;20129;-66
2021/05/27 17:39:22;;;;;;;;;;;13.90;99.90;;;;;;4930922;29;20048;-66
2021/05/27 17:41:49;;;;;;;13.52;7.97;;;13.80;99.90;;;;;;4932065;29;19926;-65
2021/05/27 17:44:16;;;;;;;12.57;6.70;;;13.70;99.90;;;;;;4929021;29;20043;-66
2021/05/27 17:46:44;;;;;;;10.50;8.10;;;13.70;99.90;;;;;;4930831;29;20066;-65
2021/05/27 17:49:10;;;;;;;13.75;8.55;;;13.70;99.90;;;;;;4944876;28;20054;-66
2021/05/27 17:51:37;;;;;;;9.88;6.68;;;13.70;99.90;;;;;;4932465;29;20040;-66
2021/05/27 17:54:04;;;;;;;7.70;6.50;;;13.60;99.90;;;;;;4932635;29;20082;-66
2021/05/27 17:56:31;;;;;;;;;;;13.50;99.90;;;;;;4931789;29;20495;-66
2021/05/27 17:58:58;;;;;;;8.05;7.25;;;13.60;99.90;;;;;;4928539;29;20013;-66